sensor_id;sensor_type;location;lat;lon;timestamp;pressure;altitude;pressure_sealevel;temperature;humidity
64402;BME280;50724;42.376;23.768;2023-03-14T00:02:26;93407.94;;;-1.73;76.36
64402;BME280;50724;42.376;23.768;2023-03-14T00:05:27;93407.91;;;-1.87;77.24
64402;BME280;50724;42.376;23.768;2023-03-14T00:08:27;93405.00;;;-1.81;77.25
64402;BME280;50724;42.376;23.768;2023-03-14T00:11:28;93394.34;;;-1.89;77.77
64402;BME280;50724;42.376;23.768;2023-03-14T00:14:31;93390.91;;;-2.03;77.61
64402;BME280;50724;42.376;23.768;2023-03-14T00:17:31;93385.97;;;-2.06;78.25
64402;BME280;50724;42.376;23.768;2023-03-14T00:20:32;93388.19;;;-2.00;77.81
64402;BME280;50724;42.376;23.768;2023-03-14T00:23:33;93374.78;;;-2.05;78.09
64402;BME280;50724;42.376;23.768;2023-03-14T00:26:34;93358.00;;;-1.95;78.07
64402;BME280;50724;42.376;23.768;2023-03-14T00:29:35;93359.38;;;-1.90;78.08
64402;BME280;50724;42.376;23.768;2023-03-14T00:32:35;93353.50;;;-1.92;78.00
64402;BME280;50724;42.376;23.768;2023-03-14T00:35:36;93352.25;;;-1.85;77.47
64402;BME280;50724;42.376;23.768;2023-03-14T00:38:37;93353.47;;;-2.06;78.14
64402;BME280;50724;42.376;23.768;2023-03-14T00:41:38;93354.56;;;-2.10;78.40
64402;BME280;50724;42.376;23.768;2023-03-14T00:44:39;93354.25;;;-2.20;78.07
64402;BME280;50724;42.376;23.768;2023-03-14T00:47:39;93341.53;;;-2.37;78.56
64402;BME280;50724;42.376;23.768;2023-03-14T00:50:39;93346.09;;;-2.26;79.03
64402;BME280;50724;42.376;23.768;2023-03-14T00:53:41;93347.50;;;-2.21;78.99
64402;BME280;50724;42.376;23.768;2023-03-14T00:56:41;93348.38;;;-2.22;78.50
64402;BME280;50724;42.376;23.768;2023-03-14T00:59:41;93339.88;;;-2.22;77.90
64402;BME280;50724;42.376;23.768;2023-03-14T01:02:42;93327.22;;;-2.39;78.68
64402;BME280;50724;42.376;23.768;2023-03-14T01:05:42;93324.28;;;-2.33;79.00
64402;BME280;50724;42.376;23.768;2023-03-14T01:08:44;93322.94;;;-2.25;78.61
64402;BME280;50724;42.376;23.768;2023-03-14T01:11:44;93314.63;;;-2.28;78.87
64402;BME280;50724;42.376;23.768;2023-03-14T01:14:46;93308.50;;;-2.26;78.95
64402;BME280;50724;42.376;23.768;2023-03-14T01:17:47;93296.53;;;-2.25;78.83
64402;BME280;50724;42.376;23.768;2023-03-14T01:20:47;93299.00;;;-2.24;79.29
64402;BME280;50724;42.376;23.768;2023-03-14T01:23:48;93293.88;;;-2.24;79.61
64402;BME280;50724;42.376;23.768;2023-03-14T01:26:49;93286.03;;;-2.21;79.08
64402;BME280;50724;42.376;23.768;2023-03-14T01:29:50;93293.72;;;-2.21;78.79
64402;BME280;50724;42.376;23.768;2023-03-14T01:32:51;93283.72;;;-2.25;79.21
64402;BME280;50724;42.376;23.768;2023-03-14T01:35:51;93274.81;;;-2.04;78.17
64402;BME280;50724;42.376;23.768;2023-03-14T01:38:51;93264.38;;;-1.87;77.18
64402;BME280;50724;42.376;23.768;2023-03-14T01:41:52;93267.19;;;-2.05;78.96
64402;BME280;50724;42.376;23.768;2023-03-14T01:44:58;93270.16;;;-2.27;79.31
64402;BME280;50724;42.376;23.768;2023-03-14T01:47:59;93266.75;;;-2.42;80.13
64402;BME280;50724;42.376;23.768;2023-03-14T01:51:00;93262.09;;;-2.35;79.99
64402;BME280;50724;42.376;23.768;2023-03-14T01:54:06;93272.50;;;-2.38;80.33
64402;BME280;50724;42.376;23.768;2023-03-14T01:57:15;93268.00;;;-2.19;79.65
64402;BME280;50724;42.376;23.768;2023-03-14T02:00:19;93278.84;;;-2.30;79.32
64402;BME280;50724;42.376;23.768;2023-03-14T02:03:21;93275.47;;;-2.30;78.93
64402;BME280;50724;42.376;23.768;2023-03-14T02:06:27;93264.78;;;-2.23;79.42
64402;BME280;50724;42.376;23.768;2023-03-14T02:09:39;93265.97;;;-2.28;80.23
64402;BME280;50724;42.376;23.768;2023-03-14T02:12:40;93266.69;;;-2.26;79.24
64402;BME280;50724;42.376;23.768;2023-03-14T02:15:41;93272.72;;;-2.27;79.61
64402;BME280;50724;42.376;23.768;2023-03-14T02:18:42;93274.91;;;-2.35;79.40
64402;BME280;50724;42.376;23.768;2023-03-14T02:22:05;93277.16;;;-2.45;80.72
64402;BME280;50724;42.376;23.768;2023-03-14T02:28:22;93272.72;;;-2.27;80.24
64402;BME280;50724;42.376;23.768;2023-03-14T02:31:23;93267.66;;;-2.43;80.59
64402;BME280;50724;42.376;23.768;2023-03-14T02:34:24;93266.75;;;-2.57;80.75
64402;BME280;50724;42.376;23.768;2023-03-14T02:37:33;93270.16;;;-2.57;81.14
64402;BME280;50724;42.376;23.768;2023-03-14T02:40:36;93271.09;;;-2.44;80.73
64402;BME280;50724;42.376;23.768;2023-03-14T02:43:36;93264.88;;;-2.54;80.75
64402;BME280;50724;42.376;23.768;2023-03-14T02:46:37;93252.53;;;-2.47;81.48
64402;BME280;50724;42.376;23.768;2023-03-14T02:49:37;93248.16;;;-2.45;81.03
64402;BME280;50724;42.376;23.768;2023-03-14T02:52:38;93247.63;;;-2.66;80.74
64402;BME280;50724;42.376;23.768;2023-03-14T02:55:38;93244.34;;;-2.68;80.44
64402;BME280;50724;42.376;23.768;2023-03-14T02:58:39;93252.53;;;-2.47;79.99
64402;BME280;50724;42.376;23.768;2023-03-14T03:01:39;93244.59;;;-2.43;79.84
64402;BME280;50724;42.376;23.768;2023-03-14T03:04:40;93238.69;;;-2.29;79.44
64402;BME280;50724;42.376;23.768;2023-03-14T03:07:40;93240.88;;;-2.37;79.62
64402;BME280;50724;42.376;23.768;2023-03-14T03:10:40;93236.75;;;-2.40;78.80
64402;BME280;50724;42.376;23.768;2023-03-14T03:13:41;93230.75;;;-2.54;78.26
64402;BME280;50724;42.376;23.768;2023-03-14T03:16:41;93224.91;;;-2.56;79.03
64402;BME280;50724;42.376;23.768;2023-03-14T03:19:42;93216.41;;;-2.57;79.16
64402;BME280;50724;42.376;23.768;2023-03-14T03:22:42;93232.69;;;-2.73;79.65
64402;BME280;50724;42.376;23.768;2023-03-14T03:25:48;93231.72;;;-2.71;80.21
64402;BME280;50724;42.376;23.768;2023-03-14T03:28:51;93244.66;;;-2.58;79.83
64402;BME280;50724;42.376;23.768;2023-03-14T03:31:52;93239.59;;;-2.44;80.21
64402;BME280;50724;42.376;23.768;2023-03-14T03:34:53;93235.97;;;-2.56;80.08
64402;BME280;50724;42.376;23.768;2023-03-14T03:37:53;93238.03;;;-2.62;79.37
64402;BME280;50724;42.376;23.768;2023-03-14T03:40:54;93232.22;;;-2.80;79.27
64402;BME280;50724;42.376;23.768;2023-03-14T03:43:54;93237.25;;;-2.79;80.48
64402;BME280;50724;42.376;23.768;2023-03-14T03:47:04;93231.97;;;-2.75;80.88
64402;BME280;50724;42.376;23.768;2023-03-14T03:50:05;93232.44;;;-2.69;80.97
64402;BME280;50724;42.376;23.768;2023-03-14T03:53:14;93242.19;;;-2.75;80.30
64402;BME280;50724;42.376;23.768;2023-03-14T03:56:15;93241.91;;;-3.01;80.36
64402;BME280;50724;42.376;23.768;2023-03-14T03:59:15;93240.47;;;-2.91;80.39
64402;BME280;50724;42.376;23.768;2023-03-14T04:02:15;93237.97;;;-2.77;79.07
64402;BME280;50724;42.376;23.768;2023-03-14T04:05:16;93236.38;;;-2.93;79.79
64402;BME280;50724;42.376;23.768;2023-03-14T04:08:16;93233.16;;;-2.97;79.71
64402;BME280;50724;42.376;23.768;2023-03-14T04:11:17;93226.88;;;-2.91;79.95
64402;BME280;50724;42.376;23.768;2023-03-14T04:14:17;93228.50;;;-2.90;80.59
64402;BME280;50724;42.376;23.768;2023-03-14T04:17:18;93225.06;;;-2.89;80.18
64402;BME280;50724;42.376;23.768;2023-03-14T04:20:18;93221.75;;;-2.91;80.19
64402;BME280;50724;42.376;23.768;2023-03-14T04:23:18;93222.16;;;-2.83;80.28
64402;BME280;50724;42.376;23.768;2023-03-14T04:26:22;93219.69;;;-2.85;79.89
64402;BME280;50724;42.376;23.768;2023-03-14T04:29:23;93218.38;;;-2.62;79.90
64402;BME280;50724;42.376;23.768;2023-03-14T04:32:23;93222.69;;;-2.62;79.58
64402;BME280;50724;42.376;23.768;2023-03-14T04:35:23;93223.69;;;-2.65;79.32
64402;BME280;50724;42.376;23.768;2023-03-14T04:38:24;93222.69;;;-2.62;79.48
64402;BME280;50724;42.376;23.768;2023-03-14T04:41:24;93220.09;;;-2.47;78.42
64402;BME280;50724;42.376;23.768;2023-03-14T04:44:25;93216.00;;;-2.35;77.90
64402;BME280;50724;42.376;23.768;2023-03-14T04:47:25;93216.75;;;-2.33;78.48
64402;BME280;50724;42.376;23.768;2023-03-14T04:50:34;93207.28;;;-2.47;78.52
64402;BME280;50724;42.376;23.768;2023-03-14T04:53:35;93210.94;;;-2.37;78.79
64402;BME280;50724;42.376;23.768;2023-03-14T04:56:37;93206.81;;;-2.10;78.29
64402;BME280;50724;42.376;23.768;2023-03-14T04:59:37;93209.41;;;-1.12;75.66
64402;BME280;50724;42.376;23.768;2023-03-14T05:02:38;93208.41;;;0.21;69.85
64402;BME280;50724;42.376;23.768;2023-03-14T05:05:38;93208.38;;;2.13;62.16
64402;BME280;50724;42.376;23.768;2023-03-14T05:08:38;93203.28;;;3.44;56.39
64402;BME280;50724;42.376;23.768;2023-03-14T05:11:39;93195.66;;;3.32;55.26
64402;BME280;50724;42.376;23.768;2023-03-14T05:14:39;93201.56;;;3.23;55.44
64402;BME280;50724;42.376;23.768;2023-03-14T05:17:40;93200.78;;;2.78;54.88
64402;BME280;50724;42.376;23.768;2023-03-14T05:20:43;93205.34;;;2.41;56.71
64402;BME280;50724;42.376;23.768;2023-03-14T05:23:43;93199.81;;;2.24;56.51
64402;BME280;50724;42.376;23.768;2023-03-14T05:26:43;93201.94;;;1.84;59.16
64402;BME280;50724;42.376;23.768;2023-03-14T05:29:44;93197.34;;;2.22;59.17
64402;BME280;50724;42.376;23.768;2023-03-14T05:32:44;93205.13;;;2.55;57.73
64402;BME280;50724;42.376;23.768;2023-03-14T05:35:45;93199.47;;;2.28;57.93
64402;BME280;50724;42.376;23.768;2023-03-14T05:38:45;93205.50;;;1.94;59.45
64402;BME280;50724;42.376;23.768;2023-03-14T05:41:46;93200.88;;;1.28;61.67
64402;BME280;50724;42.376;23.768;2023-03-14T05:44:46;93204.31;;;1.16;63.11
64402;BME280;50724;42.376;23.768;2023-03-14T05:47:47;93208.78;;;1.01;63.19
64402;BME280;50724;42.376;23.768;2023-03-14T05:50:48;93213.16;;;1.01;63.40
64402;BME280;50724;42.376;23.768;2023-03-14T05:53:48;93199.19;;;0.80;64.74
64402;BME280;50724;42.376;23.768;2023-03-14T05:56:49;93200.75;;;0.57;64.80
64402;BME280;50724;42.376;23.768;2023-03-14T05:59:49;93201.78;;;0.67;64.81
64402;BME280;50724;42.376;23.768;2023-03-14T06:02:50;93198.09;;;0.58;65.11
64402;BME280;50724;42.376;23.768;2023-03-14T06:05:50;93194.59;;;0.59;64.96
64402;BME280;50724;42.376;23.768;2023-03-14T06:08:51;93203.66;;;0.52;65.63
64402;BME280;50724;42.376;23.768;2023-03-14T06:11:51;93192.84;;;0.60;65.96
64402;BME280;50724;42.376;23.768;2023-03-14T06:14:52;93190.47;;;0.69;66.79
64402;BME280;50724;42.376;23.768;2023-03-14T06:17:54;93193.13;;;1.04;65.52
64402;BME280;50724;42.376;23.768;2023-03-14T06:20:55;93195.22;;;1.23;64.02
64402;BME280;50724;42.376;23.768;2023-03-14T06:23:56;93194.53;;;1.45;63.78
64402;BME280;50724;42.376;23.768;2023-03-14T06:26:56;93187.03;;;1.76;63.78
64402;BME280;50724;42.376;23.768;2023-03-14T06:29:58;93182.03;;;1.97;62.66
64402;BME280;50724;42.376;23.768;2023-03-14T06:32:59;93178.47;;;2.11;62.29
64402;BME280;50724;42.376;23.768;2023-03-14T06:36:00;93191.50;;;2.31;61.33
64402;BME280;50724;42.376;23.768;2023-03-14T06:39:00;93181.88;;;2.33;60.73
64402;BME280;50724;42.376;23.768;2023-03-14T06:42:00;93181.75;;;2.35;60.62
64402;BME280;50724;42.376;23.768;2023-03-14T06:45:01;93189.19;;;2.50;60.66
64402;BME280;50724;42.376;23.768;2023-03-14T06:48:02;93186.09;;;3.01;58.55
64402;BME280;50724;42.376;23.768;2023-03-14T06:51:03;93179.84;;;3.25;57.23
64402;BME280;50724;42.376;23.768;2023-03-14T06:54:03;93191.44;;;3.42;56.52
64402;BME280;50724;42.376;23.768;2023-03-14T06:57:04;93189.34;;;3.68;52.45
64402;BME280;50724;42.376;23.768;2023-03-14T07:00:05;93181.50;;;3.47;52.46
64402;BME280;50724;42.376;23.768;2023-03-14T07:03:05;93179.09;;;3.34;52.55
64402;BME280;50724;42.376;23.768;2023-03-14T07:06:06;93170.66;;;3.85;52.17
64402;BME280;50724;42.376;23.768;2023-03-14T07:09:06;93173.38;;;4.25;50.76
64402;BME280;50724;42.376;23.768;2023-03-14T07:12:09;93173.22;;;4.16;50.90
64402;BME280;50724;42.376;23.768;2023-03-14T07:15:10;93169.91;;;4.56;50.51
64402;BME280;50724;42.376;23.768;2023-03-14T07:18:11;93163.97;;;4.74;50.51
64402;BME280;50724;42.376;23.768;2023-03-14T07:21:12;93174.41;;;4.94;46.83
64402;BME280;50724;42.376;23.768;2023-03-14T07:24:12;93171.19;;;5.01;48.83
64402;BME280;50724;42.376;23.768;2023-03-14T07:27:13;93167.78;;;5.10;47.89
64402;BME280;50724;42.376;23.768;2023-03-14T07:30:14;93166.59;;;5.24;47.13
64402;BME280;50724;42.376;23.768;2023-03-14T07:33:15;93164.97;;;5.42;46.47
64402;BME280;50724;42.376;23.768;2023-03-14T07:36:15;93163.47;;;5.30;48.00
64402;BME280;50724;42.376;23.768;2023-03-14T07:39:16;93166.06;;;5.30;48.66
64402;BME280;50724;42.376;23.768;2023-03-14T07:42:16;93165.28;;;5.58;46.77
64402;BME280;50724;42.376;23.768;2023-03-14T07:45:17;93170.09;;;5.63;44.87
64402;BME280;50724;42.376;23.768;2023-03-14T07:48:17;93165.84;;;5.71;46.20
64402;BME280;50724;42.376;23.768;2023-03-14T07:51:18;93162.31;;;5.63;46.00
64402;BME280;50724;42.376;23.768;2023-03-14T07:54:18;93158.78;;;6.02;45.75
64402;BME280;50724;42.376;23.768;2023-03-14T07:57:21;93150.16;;;6.11;44.27
64402;BME280;50724;42.376;23.768;2023-03-14T08:00:21;93147.31;;;6.04;45.73
64402;BME280;50724;42.376;23.768;2023-03-14T08:03:22;93143.59;;;6.16;45.34
64402;BME280;50724;42.376;23.768;2023-03-14T08:06:23;93133.25;;;6.53;44.31
64402;BME280;50724;42.376;23.768;2023-03-14T08:09:23;93137.56;;;6.72;44.77
64402;BME280;50724;42.376;23.768;2023-03-14T08:12:23;93124.84;;;6.69;45.13
64402;BME280;50724;42.376;23.768;2023-03-14T08:15:25;93127.41;;;6.78;43.27
64402;BME280;50724;42.376;23.768;2023-03-14T08:18:25;93132.56;;;6.61;43.34
64402;BME280;50724;42.376;23.768;2023-03-14T08:21:26;93131.47;;;6.90;44.07
64402;BME280;50724;42.376;23.768;2023-03-14T08:24:26;93122.84;;;6.90;43.57
64402;BME280;50724;42.376;23.768;2023-03-14T08:27:27;93123.16;;;7.14;43.17
64402;BME280;50724;42.376;23.768;2023-03-14T08:30:28;93120.31;;;7.08;43.15
64402;BME280;50724;42.376;23.768;2023-03-14T08:33:29;93118.28;;;7.29;43.83
64402;BME280;50724;42.376;23.768;2023-03-14T08:36:30;93122.78;;;7.54;43.86
64402;BME280;50724;42.376;23.768;2023-03-14T08:39:31;93116.69;;;7.45;42.76
64402;BME280;50724;42.376;23.768;2023-03-14T08:42:32;93119.63;;;7.50;43.71
64402;BME280;50724;42.376;23.768;2023-03-14T08:45:33;93125.38;;;7.72;43.29
64402;BME280;50724;42.376;23.768;2023-03-14T08:48:33;93121.94;;;7.53;43.11
64402;BME280;50724;42.376;23.768;2023-03-14T08:51:34;93114.28;;;7.52;42.64
64402;BME280;50724;42.376;23.768;2023-03-14T08:54:34;93116.16;;;7.59;44.11
64402;BME280;50724;42.376;23.768;2023-03-14T08:57:35;93110.66;;;7.80;42.71
64402;BME280;50724;42.376;23.768;2023-03-14T09:04:19;93105.97;;;7.84;42.36
64402;BME280;50724;42.376;23.768;2023-03-14T09:07:20;93107.66;;;8.10;43.23
64402;BME280;50724;42.376;23.768;2023-03-14T09:10:21;93113.78;;;8.01;43.82
64402;BME280;50724;42.376;23.768;2023-03-14T09:13:21;93102.59;;;8.26;42.57
64402;BME280;50724;42.376;23.768;2023-03-14T09:16:21;93107.59;;;8.46;41.96
64402;BME280;50724;42.376;23.768;2023-03-14T09:19:22;93106.16;;;8.51;42.73
64402;BME280;50724;42.376;23.768;2023-03-14T09:22:22;93101.75;;;8.77;43.56
64402;BME280;50724;42.376;23.768;2023-03-14T09:25:23;93096.97;;;8.98;41.66
64402;BME280;50724;42.376;23.768;2023-03-14T09:28:24;93088.41;;;9.14;42.39
64402;BME280;50724;42.376;23.768;2023-03-14T09:31:24;93090.31;;;9.12;41.40
64402;BME280;50724;42.376;23.768;2023-03-14T09:34:25;93083.25;;;8.88;41.75
64402;BME280;50724;42.376;23.768;2023-03-14T09:37:34;93083.66;;;9.18;42.88
64402;BME280;50724;42.376;23.768;2023-03-14T09:40:36;93063.22;;;9.47;40.68
64402;BME280;50724;42.376;23.768;2023-03-14T09:43:37;93059.47;;;9.49;40.29
64402;BME280;50724;42.376;23.768;2023-03-14T09:46:41;93055.69;;;9.44;40.94
64402;BME280;50724;42.376;23.768;2023-03-14T09:49:42;93051.31;;;9.77;40.71
64402;BME280;50724;42.376;23.768;2023-03-14T09:52:47;93044.28;;;10.09;40.91
64402;BME280;50724;42.376;23.768;2023-03-14T09:55:49;93044.28;;;10.09;38.53
64402;BME280;50724;42.376;23.768;2023-03-14T09:58:56;93037.28;;;9.69;40.32
64402;BME280;50724;42.376;23.768;2023-03-14T10:02:01;93033.84;;;10.09;40.72
64402;BME280;50724;42.376;23.768;2023-03-14T10:05:07;93028.47;;;10.03;38.38
64402;BME280;50724;42.376;23.768;2023-03-14T10:08:12;93014.72;;;10.33;39.06
64402;BME280;50724;42.376;23.768;2023-03-14T10:11:17;93015.66;;;10.56;39.10
64402;BME280;50724;42.376;23.768;2023-03-14T10:14:29;93005.63;;;10.68;37.93
64402;BME280;50724;42.376;23.768;2023-03-14T10:17:29;92994.03;;;10.70;37.67
64402;BME280;50724;42.376;23.768;2023-03-14T10:20:46;92984.84;;;10.74;37.03
64402;BME280;50724;42.376;23.768;2023-03-14T10:23:47;92973.53;;;10.43;39.67
64402;BME280;50724;42.376;23.768;2023-03-14T10:26:55;92972.66;;;10.59;39.39
64402;BME280;50724;42.376;23.768;2023-03-14T10:29:58;92964.41;;;10.78;38.65
64402;BME280;50724;42.376;23.768;2023-03-14T10:33:08;92959.94;;;11.17;37.42
64402;BME280;50724;42.376;23.768;2023-03-14T10:36:20;92947.16;;;11.22;36.93
64402;BME280;50724;42.376;23.768;2023-03-14T10:39:32;92939.41;;;11.51;38.20
64402;BME280;50724;42.376;23.768;2023-03-14T10:42:39;92936.72;;;11.82;36.52
64402;BME280;50724;42.376;23.768;2023-03-14T10:45:43;92936.91;;;11.58;36.11
64402;BME280;50724;42.376;23.768;2023-03-14T10:48:58;92929.84;;;11.58;36.76
64402;BME280;50724;42.376;23.768;2023-03-14T10:52:25;92924.97;;;11.78;35.95
64402;BME280;50724;42.376;23.768;2023-03-14T10:55:26;92915.75;;;11.82;36.58
64402;BME280;50724;42.376;23.768;2023-03-14T10:58:31;92913.16;;;11.97;35.92
64402;BME280;50724;42.376;23.768;2023-03-14T11:01:58;92902.97;;;12.02;35.34
64402;BME280;50724;42.376;23.768;2023-03-14T11:08:09;92892.56;;;11.94;35.85
64402;BME280;50724;42.376;23.768;2023-03-14T11:11:26;92889.38;;;11.98;35.96
64402;BME280;50724;42.376;23.768;2023-03-14T11:14:36;92873.69;;;12.27;35.03
64402;BME280;50724;42.376;23.768;2023-03-14T11:17:54;92859.94;;;12.25;34.36
64402;BME280;50724;42.376;23.768;2023-03-14T11:21:02;92864.72;;;12.22;34.59
64402;BME280;50724;42.376;23.768;2023-03-14T11:27:22;92839.38;;;12.43;34.20
64402;BME280;50724;42.376;23.768;2023-03-14T11:33:56;92829.59;;;12.52;34.79
64402;BME280;50724;42.376;23.768;2023-03-14T11:37:27;92820.28;;;12.50;34.11
64402;BME280;50724;42.376;23.768;2023-03-14T11:40:33;92819.59;;;12.98;34.84
64402;BME280;50724;42.376;23.768;2023-03-14T11:43:39;92811.25;;;13.09;34.00
64402;BME280;50724;42.376;23.768;2023-03-14T11:46:56;92807.03;;;12.93;33.12
64402;BME280;50724;42.376;23.768;2023-03-14T11:50:19;92794.78;;;12.79;34.08
64402;BME280;50724;42.376;23.768;2023-03-14T11:53:35;92789.44;;;13.08;34.89
64402;BME280;50724;42.376;23.768;2023-03-14T11:56:44;92784.84;;;13.38;33.65
64402;BME280;50724;42.376;23.768;2023-03-14T12:06:53;92763.53;;;13.27;32.79
64402;BME280;50724;42.376;23.768;2023-03-14T12:09:56;92757.56;;;13.39;33.35
64402;BME280;50724;42.376;23.768;2023-03-14T12:12:57;92753.22;;;13.25;32.82
64402;BME280;50724;42.376;23.768;2023-03-14T12:16:00;92749.31;;;13.15;33.34
64402;BME280;50724;42.376;23.768;2023-03-14T12:19:21;92740.00;;;13.12;32.11
64402;BME280;50724;42.376;23.768;2023-03-14T12:22:26;92741.38;;;12.66;33.55
64402;BME280;50724;42.376;23.768;2023-03-14T12:25:30;92736.66;;;12.40;34.43
64402;BME280;50724;42.376;23.768;2023-03-14T12:28:31;92727.19;;;12.60;33.67
64402;BME280;50724;42.376;23.768;2023-03-14T12:31:37;92723.72;;;12.60;34.72
64402;BME280;50724;42.376;23.768;2023-03-14T12:34:42;92717.25;;;12.77;33.39
64402;BME280;50724;42.376;23.768;2023-03-14T12:37:47;92715.25;;;12.79;33.98
64402;BME280;50724;42.376;23.768;2023-03-14T12:41:01;92712.78;;;12.98;33.44
64402;BME280;50724;42.376;23.768;2023-03-14T12:50:56;92702.13;;;12.79;33.30
64402;BME280;50724;42.376;23.768;2023-03-14T13:00:19;92684.84;;;13.12;33.26
64402;BME280;50724;42.376;23.768;2023-03-14T13:03:26;92681.59;;;13.10;33.00
64402;BME280;50724;42.376;23.768;2023-03-14T13:09:55;92674.94;;;13.42;32.08
64402;BME280;50724;42.376;23.768;2023-03-14T13:16:23;92677.44;;;13.56;31.55
64402;BME280;50724;42.376;23.768;2023-03-14T13:19:29;92674.25;;;13.67;31.32
64402;BME280;50724;42.376;23.768;2023-03-14T13:22:33;92664.06;;;13.51;32.14
64402;BME280;50724;42.376;23.768;2023-03-14T13:25:34;92665.44;;;13.13;33.44
64402;BME280;50724;42.376;23.768;2023-03-14T13:28:35;92668.19;;;13.26;33.24
64402;BME280;50724;42.376;23.768;2023-03-14T13:31:36;92669.34;;;12.96;33.57
64402;BME280;50724;42.376;23.768;2023-03-14T13:34:36;92655.25;;;13.03;32.52
64402;BME280;50724;42.376;23.768;2023-03-14T13:37:39;92640.84;;;12.93;33.30
64402;BME280;50724;42.376;23.768;2023-03-14T13:40:42;92636.38;;;12.87;34.01
64402;BME280;50724;42.376;23.768;2023-03-14T13:43:44;92630.97;;;12.95;32.99
64402;BME280;50724;42.376;23.768;2023-03-14T13:46:44;92633.91;;;13.06;32.49
64402;BME280;50724;42.376;23.768;2023-03-14T13:49:48;92621.53;;;13.00;32.36
64402;BME280;50724;42.376;23.768;2023-03-14T13:52:55;92625.16;;;12.72;33.40
64402;BME280;50724;42.376;23.768;2023-03-14T13:55:57;92631.41;;;12.50;32.96
64402;BME280;50724;42.376;23.768;2023-03-14T13:59:01;92622.94;;;12.26;33.58
64402;BME280;50724;42.376;23.768;2023-03-14T14:02:13;92616.19;;;12.17;32.97
64402;BME280;50724;42.376;23.768;2023-03-14T14:05:15;92611.34;;;12.14;33.15
64402;BME280;50724;42.376;23.768;2023-03-14T14:08:15;92610.84;;;12.04;33.22
64402;BME280;50724;42.376;23.768;2023-03-14T14:14:47;92602.72;;;12.20;34.34
64402;BME280;50724;42.376;23.768;2023-03-14T14:17:54;92599.28;;;12.20;33.22
64402;BME280;50724;42.376;23.768;2023-03-14T14:20:57;92590.81;;;11.97;33.19
64402;BME280;50724;42.376;23.768;2023-03-14T14:23:58;92588.94;;;11.91;33.68
64402;BME280;50724;42.376;23.768;2023-03-14T14:27:01;92590.75;;;11.90;33.99
64402;BME280;50724;42.376;23.768;2023-03-14T14:33:20;92579.19;;;11.85;34.01
64402;BME280;50724;42.376;23.768;2023-03-14T14:36:23;92571.38;;;11.70;35.03
64402;BME280;50724;42.376;23.768;2023-03-14T14:39:26;92576.09;;;11.60;34.22
64402;BME280;50724;42.376;23.768;2023-03-14T14:42:31;92561.56;;;11.57;34.74
64402;BME280;50724;42.376;23.768;2023-03-14T14:45:33;92557.97;;;11.44;34.01
64402;BME280;50724;42.376;23.768;2023-03-14T14:48:37;92564.00;;;11.44;34.11
64402;BME280;50724;42.376;23.768;2023-03-14T14:51:48;92560.91;;;11.20;34.99
64402;BME280;50724;42.376;23.768;2023-03-14T14:54:57;92557.28;;;11.21;35.21
64402;BME280;50724;42.376;23.768;2023-03-14T14:57:58;92551.16;;;11.14;35.53
64402;BME280;50724;42.376;23.768;2023-03-14T15:01:14;92544.19;;;11.21;35.75
64402;BME280;50724;42.376;23.768;2023-03-14T15:04:15;92538.16;;;11.20;35.49
64402;BME280;50724;42.376;23.768;2023-03-14T15:07:16;92531.84;;;11.15;34.93
64402;BME280;50724;42.376;23.768;2023-03-14T15:10:19;92536.41;;;10.91;35.68
64402;BME280;50724;42.376;23.768;2023-03-14T15:13:19;92534.94;;;10.74;35.48
64402;BME280;50724;42.376;23.768;2023-03-14T15:16:29;92532.06;;;10.84;35.76
64402;BME280;50724;42.376;23.768;2023-03-14T15:19:31;92529.00;;;10.80;35.86
64402;BME280;50724;42.376;23.768;2023-03-14T15:22:33;92524.59;;;10.66;36.36
64402;BME280;50724;42.376;23.768;2023-03-14T15:25:33;92518.63;;;10.58;36.31
64402;BME280;50724;42.376;23.768;2023-03-14T15:28:33;92523.22;;;10.41;36.22
64402;BME280;50724;42.376;23.768;2023-03-14T15:31:34;92532.31;;;10.30;36.35
64402;BME280;50724;42.376;23.768;2023-03-14T15:34:36;92529.38;;;10.33;35.90
64402;BME280;50724;42.376;23.768;2023-03-14T15:37:36;92526.53;;;10.20;37.01
64402;BME280;50724;42.376;23.768;2023-03-14T15:40:37;92533.38;;;9.99;36.41
64402;BME280;50724;42.376;23.768;2023-03-14T15:43:37;92527.56;;;9.74;37.85
64402;BME280;50724;42.376;23.768;2023-03-14T15:46:37;92521.59;;;9.65;38.05
64402;BME280;50724;42.376;23.768;2023-03-14T15:49:38;92517.44;;;9.56;38.61
64402;BME280;50724;42.376;23.768;2023-03-14T15:52:38;92518.97;;;9.43;38.22
64402;BME280;50724;42.376;23.768;2023-03-14T15:55:39;92520.53;;;9.29;38.87
64402;BME280;50724;42.376;23.768;2023-03-14T15:58:39;92516.75;;;9.09;39.69
64402;BME280;50724;42.376;23.768;2023-03-14T16:01:41;92508.72;;;8.88;40.61
64402;BME280;50724;42.376;23.768;2023-03-14T16:04:41;92508.78;;;8.72;40.76
64402;BME280;50724;42.376;23.768;2023-03-14T16:07:42;92505.56;;;8.54;40.56
64402;BME280;50724;42.376;23.768;2023-03-14T16:10:43;92495.91;;;8.32;41.29
64402;BME280;50724;42.376;23.768;2023-03-14T16:13:43;92503.91;;;8.06;42.13
64402;BME280;50724;42.376;23.768;2023-03-14T16:16:44;92503.25;;;7.96;42.58
64402;BME280;50724;42.376;23.768;2023-03-14T16:19:44;92499.56;;;7.66;43.98
64402;BME280;50724;42.376;23.768;2023-03-14T16:22:45;92499.22;;;7.53;43.69
64402;BME280;50724;42.376;23.768;2023-03-14T16:25:46;92489.94;;;7.02;44.95
64402;BME280;50724;42.376;23.768;2023-03-14T16:28:46;92492.16;;;6.81;45.20
64402;BME280;50724;42.376;23.768;2023-03-14T16:31:55;92499.53;;;6.52;46.26
64402;BME280;50724;42.376;23.768;2023-03-14T16:34:55;92498.97;;;6.32;46.97
64402;BME280;50724;42.376;23.768;2023-03-14T16:37:59;92496.22;;;6.34;47.29
64402;BME280;50724;42.376;23.768;2023-03-14T16:41:04;92494.44;;;6.34;47.73
64402;BME280;50724;42.376;23.768;2023-03-14T16:44:05;92489.53;;;6.23;47.90
64402;BME280;50724;42.376;23.768;2023-03-14T16:47:06;92479.38;;;6.04;48.88
64402;BME280;50724;42.376;23.768;2023-03-14T16:50:06;92476.59;;;6.05;48.20